createdAt,value
2016-11-20T00:00:36.600Z,994.70
2016-11-20T00:00:58.423Z,994.71
2016-11-20T00:01:20.157Z,994.76
2016-11-20T00:01:52.434Z,994.74
2016-11-20T00:02:16.174Z,994.72
2016-11-20T00:02:42.687Z,994.74
2016-11-20T00:03:04.453Z,994.71
2016-11-20T00:03:31.964Z,994.65
2016-11-20T00:03:53.696Z,994.65
2016-11-20T00:04:50.414Z,994.66
2016-11-20T00:05:14.960Z,994.67
2016-11-20T00:05:36.677Z,994.64
2016-11-20T00:06:06.924Z,994.55
2016-11-20T00:06:28.656Z,994.64
2016-11-20T00:06:55.185Z,994.62
2016-11-20T00:07:16.912Z,994.63
2016-11-20T00:07:40.649Z,994.65
2016-11-20T00:08:02.374Z,994.64
2016-11-20T00:08:24.116Z,994.57
2016-11-20T00:08:50.620Z,994.56
2016-11-20T00:09:13.359Z,994.56
2016-11-20T00:09:43.831Z,994.55
2016-11-20T00:10:10.400Z,994.58
2016-11-20T00:10:32.167Z,994.60
2016-11-20T00:10:53.899Z,994.57
2016-11-20T00:11:16.644Z,994.62
2016-11-20T00:11:43.147Z,994.60
2016-11-20T00:12:04.894Z,994.55
2016-11-20T00:12:31.424Z,994.58
2016-11-20T00:12:53.184Z,994.60
2016-11-20T00:13:14.923Z,994.55
2016-11-20T00:14:35.435Z,994.46
2016-11-20T00:16:02.359Z,994.45
2016-11-20T00:16:32.487Z,994.48
2016-11-20T00:16:56.222Z,994.47
2016-11-20T00:17:22.764Z,994.55
2016-11-20T00:17:49.254Z,994.61
2016-11-20T00:18:11.990Z,994.54
2016-11-20T00:18:36.661Z,994.54
2016-11-20T00:19:03.501Z,994.47
2016-11-20T00:19:25.399Z,994.46
2016-11-20T00:19:47.053Z,994.49
2016-11-20T00:20:13.552Z,994.54
2016-11-20T00:20:36.328Z,994.54
2016-11-20T00:20:58.063Z,994.50
2016-11-20T00:21:19.779Z,994.51
2016-11-20T00:22:44.408Z,994.47
2016-11-20T00:23:06.243Z,994.40
2016-11-20T00:23:30.038Z,994.45
2016-11-20T00:23:51.813Z,994.48
2016-11-20T00:24:13.555Z,994.39
2016-11-20T00:25:07.646Z,994.44
2016-11-20T00:25:29.399Z,994.41
2016-11-20T00:26:00.662Z,994.44
2016-11-20T00:26:52.566Z,994.46
2016-11-20T00:27:21.947Z,994.51
2016-11-20T00:27:43.684Z,994.46
2016-11-20T00:28:17.684Z,994.37
2016-11-20T00:28:44.501Z,994.38
2016-11-20T00:29:06.228Z,994.38
2016-11-20T00:29:32.727Z,994.31
2016-11-20T00:29:54.474Z,994.37
2016-11-20T00:30:16.213Z,994.37
2016-11-20T00:30:48.483Z,994.29
2016-11-20T00:31:15.982Z,994.30
2016-11-20T00:31:37.743Z,994.23
2016-11-20T00:32:00.484Z,994.21
2016-11-20T00:32:22.204Z,994.18
2016-11-20T00:32:46.771Z,994.34
2016-11-20T00:33:08.500Z,994.35
2016-11-20T00:33:33.057Z,994.30
2016-11-20T00:33:59.568Z,994.22
2016-11-20T00:34:24.289Z,994.22
2016-11-20T00:34:46.082Z,994.24
2016-11-20T00:35:07.909Z,994.25
2016-11-20T00:35:58.139Z,994.21
2016-11-20T00:36:24.673Z,994.26
2016-11-20T00:36:46.403Z,994.22
2016-11-20T00:37:08.143Z,994.22
2016-11-20T00:37:29.911Z,994.23
2016-11-20T00:37:51.742Z,994.22
2016-11-20T00:38:13.458Z,994.15
2016-11-20T00:38:36.229Z,994.21
2016-11-20T00:38:58.950Z,994.29
2016-11-20T00:39:20.751Z,994.21
2016-11-20T00:39:42.488Z,994.14
2016-11-20T00:40:04.227Z,994.12
2016-11-20T00:40:29.616Z,994.04
2016-11-20T00:41:17.848Z,994.09
2016-11-20T00:41:40.580Z,994.09
2016-11-20T00:42:02.321Z,994.12
2016-11-20T00:42:28.824Z,993.99
2016-11-20T00:42:50.564Z,994.06
2016-11-20T00:43:17.069Z,994.05
2016-11-20T00:43:38.802Z,994.03
2016-11-20T00:44:37.579Z,994.06
2016-11-20T00:45:10.847Z,994.17
2016-11-20T00:45:38.885Z,994.25
2016-11-20T00:46:01.616Z,994.17
2016-11-20T00:46:28.113Z,994.11
2016-11-20T00:46:49.847Z,994.11
2016-11-20T00:47:15.200Z,994.09
2016-11-20T00:47:40.496Z,994.06
2016-11-20T00:48:02.241Z,994.07
2016-11-20T00:49:07.075Z,993.98
2016-11-20T00:50:05.889Z,994.04
2016-11-20T00:50:33.410Z,994.00
2016-11-20T00:51:54.921Z,994.04
2016-11-20T00:52:24.220Z,994.10
2016-11-20T00:52:48.491Z,994.10
2016-11-20T00:53:14.988Z,994.07
2016-11-20T00:53:39.690Z,994.09
2016-11-20T00:54:10.966Z,994.01
2016-11-20T00:54:32.701Z,993.99
2016-11-20T00:54:55.455Z,993.96
2016-11-20T00:55:17.248Z,993.98
2016-11-20T00:56:32.712Z,994.10
2016-11-20T00:57:00.227Z,994.16
2016-11-20T00:57:26.743Z,994.10
2016-11-20T00:57:58.544Z,994.03
2016-11-20T00:58:26.074Z,994.01
2016-11-20T00:59:50.178Z,993.90
2016-11-20T01:00:43.811Z,993.87
2016-11-20T01:01:10.140Z,993.90
2016-11-20T01:02:02.777Z,993.81
2016-11-20T01:02:32.144Z,993.77
2016-11-20T01:02:54.031Z,993.79
2016-11-20T01:03:15.765Z,993.86
2016-11-20T01:04:13.553Z,993.94
2016-11-20T01:04:36.296Z,993.93
2016-11-20T01:05:03.819Z,993.95
2016-11-20T01:05:25.543Z,993.92
2016-11-20T01:05:47.308Z,993.91
2016-11-20T01:06:09.064Z,993.84
2016-11-20T01:06:37.660Z,993.88
2016-11-20T01:07:00.482Z,993.86
2016-11-20T01:07:22.229Z,993.83
2016-11-20T01:07:43.971Z,993.82
2016-11-20T01:08:10.476Z,993.83
2016-11-20T01:08:39.550Z,993.81
2016-11-20T01:09:01.289Z,993.80
2016-11-20T01:09:27.802Z,993.78
2016-11-20T01:09:49.542Z,993.85
2016-11-20T01:10:11.283Z,993.91
2016-11-20T01:10:34.025Z,993.80
2016-11-20T01:11:00.742Z,993.90
2016-11-20T01:11:23.490Z,993.84
2016-11-20T01:11:45.223Z,993.76
2016-11-20T01:12:12.727Z,993.79
2016-11-20T01:12:34.511Z,993.81
2016-11-20T01:13:01.015Z,993.84
2016-11-20T01:13:22.778Z,993.80
2016-11-20T01:13:45.512Z,993.73
2016-11-20T01:14:07.257Z,993.80
2016-11-20T01:14:29.117Z,993.78
2016-11-20T01:14:55.625Z,993.80
2016-11-20T01:15:48.734Z,993.73
2016-11-20T01:16:15.236Z,993.68
2016-11-20T01:16:44.461Z,993.69
2016-11-20T01:17:09.090Z,993.69
2016-11-20T01:17:35.418Z,993.79
2016-11-20T01:18:03.936Z,993.81
2016-11-20T01:18:31.452Z,993.73
2016-11-20T01:19:02.725Z,993.73
2016-11-20T01:19:24.495Z,993.77
2016-11-20T01:19:50.989Z,993.79
2016-11-20T01:20:12.726Z,993.89
2016-11-20T01:20:34.452Z,993.87
2016-11-20T01:21:03.842Z,993.89
2016-11-20T01:21:26.590Z,993.96
2016-11-20T01:21:49.326Z,993.85
2016-11-20T01:22:11.057Z,993.90
2016-11-20T01:22:32.790Z,993.83
2016-11-20T01:22:55.516Z,993.88
2016-11-20T01:23:17.256Z,993.86
2016-11-20T01:23:40.015Z,993.79
2016-11-20T01:24:01.978Z,993.87
2016-11-20T01:26:36.908Z,993.86
2016-11-20T01:27:26.158Z,993.98
2016-11-20T01:27:55.422Z,993.94
2016-11-20T01:28:18.189Z,993.84
2016-11-20T01:28:40.930Z,993.82
2016-11-20T01:29:06.370Z,993.91
2016-11-20T01:29:29.142Z,993.93
2016-11-20T01:29:52.930Z,993.99
2016-11-20T01:30:16.673Z,993.98
2016-11-20T01:30:43.423Z,993.78
2016-11-20T01:31:09.825Z,993.76
2016-11-20T01:31:34.385Z,993.86
2016-11-20T01:32:00.879Z,993.92
2016-11-20T01:32:32.169Z,993.98
2016-11-20T01:32:57.540Z,993.92
2016-11-20T01:33:21.827Z,994.00
2016-11-20T01:33:48.370Z,993.92
2016-11-20T01:34:15.998Z,993.90
2016-11-20T01:34:40.431Z,993.89
2016-11-20T01:35:11.696Z,993.87
2016-11-20T01:35:38.208Z,993.94
2016-11-20T01:36:01.949Z,993.90
2016-11-20T01:36:28.451Z,993.94
2016-11-20T01:36:50.210Z,993.92
2016-11-20T01:37:11.946Z,993.90
2016-11-20T01:37:34.693Z,993.92
2016-11-20T01:38:34.463Z,993.86
2016-11-20T01:39:00.971Z,993.76
2016-11-20T01:39:27.466Z,993.73
2016-11-20T01:39:57.742Z,993.76
2016-11-20T01:40:23.074Z,993.79
2016-11-20T01:40:44.797Z,993.78
2016-11-20T01:41:36.019Z,993.70
2016-11-20T01:41:58.795Z,993.80
2016-11-20T01:42:23.190Z,993.77
2016-11-20T01:42:49.682Z,993.72
2016-11-20T01:43:20.956Z,993.80
2016-11-20T01:43:45.301Z,993.84
2016-11-20T01:44:14.712Z,993.83
2016-11-20T01:45:07.724Z,993.79
2016-11-20T01:45:32.267Z,993.79
2016-11-20T01:45:58.980Z,993.71
2016-11-20T01:46:27.979Z,993.69
2016-11-20T01:46:51.736Z,993.70
2016-11-20T01:47:18.250Z,993.70
2016-11-20T01:47:39.989Z,993.70
2016-11-20T01:48:32.996Z,993.68
2016-11-20T01:48:55.719Z,993.67
2016-11-20T01:49:18.460Z,993.73
2016-11-20T01:49:41.315Z,993.64
2016-11-20T01:50:07.872Z,993.64
2016-11-20T01:50:34.367Z,993.54
2016-11-20T01:51:00.873Z,993.46
2016-11-20T01:51:22.616Z,993.52
2016-11-20T01:51:49.121Z,993.50
2016-11-20T01:52:10.903Z,993.59
2016-11-20T01:52:59.151Z,993.57
2016-11-20T01:53:23.873Z,993.49
2016-11-20T01:53:45.608Z,993.46
2016-11-20T01:54:08.342Z,993.41
2016-11-20T01:54:42.415Z,993.29
2016-11-20T01:55:08.758Z,993.47
2016-11-20T01:55:41.038Z,993.43
2016-11-20T01:57:03.269Z,993.43
2016-11-20T01:57:25.001Z,993.28
2016-11-20T01:57:51.714Z,993.26
2016-11-20T01:58:44.719Z,993.34
2016-11-20T01:59:45.933Z,993.15
2016-11-20T02:00:13.434Z,993.13
2016-11-20T02:00:35.212Z,993.12
2016-11-20T02:01:02.718Z,993.12
2016-11-20T02:01:32.034Z,993.06
2016-11-20T02:02:00.537Z,993.07
2016-11-20T02:02:22.269Z,993.12
2016-11-20T02:03:17.333Z,993.03
2016-11-20T02:03:41.070Z,993.11
2016-11-20T02:04:02.839Z,993.02
2016-11-20T02:04:25.626Z,992.95
2016-11-20T02:04:51.072Z,992.96
2016-11-20T02:05:12.918Z,992.95
2016-11-20T02:05:40.430Z,992.94
2016-11-20T02:06:02.183Z,992.91
2016-11-20T02:06:24.914Z,992.92
2016-11-20T02:06:46.646Z,992.88
2016-11-20T02:07:08.406Z,992.90
2016-11-20T02:07:31.139Z,992.89
2016-11-20T02:07:57.697Z,992.87
2016-11-20T02:08:19.424Z,992.84
2016-11-20T02:08:45.733Z,992.82
2016-11-20T02:09:10.337Z,992.67
2016-11-20T02:09:32.085Z,992.70
2016-11-20T02:10:52.601Z,992.57
2016-11-20T02:11:46.909Z,992.44
2016-11-20T02:12:35.159Z,992.47
2016-11-20T02:12:56.911Z,992.50
2016-11-20T02:13:19.633Z,992.44
2016-11-20T02:13:48.849Z,992.47
2016-11-20T02:14:19.931Z,992.40
2016-11-20T02:14:41.658Z,992.50
2016-11-20T02:15:36.583Z,992.44
2016-11-20T02:15:59.309Z,992.43
2016-11-20T02:16:23.719Z,992.46
2016-11-20T02:16:57.651Z,992.37
2016-11-20T02:17:24.182Z,992.47
2016-11-20T02:17:51.732Z,992.39
2016-11-20T02:18:13.462Z,992.34
2016-11-20T02:18:36.203Z,992.38
2016-11-20T02:19:32.267Z,992.30
2016-11-20T02:19:53.978Z,992.34
2016-11-20T02:20:20.361Z,992.31
2016-11-20T02:20:49.511Z,992.37
2016-11-20T02:21:16.052Z,992.27
2016-11-20T02:21:42.565Z,992.32
2016-11-20T02:22:04.311Z,992.29
2016-11-20T02:22:34.206Z,992.31
2016-11-20T02:22:56.947Z,992.30
2016-11-20T02:24:35.530Z,992.24
2016-11-20T02:25:02.086Z,992.24
2016-11-20T02:25:29.667Z,992.24
2016-11-20T02:25:52.422Z,992.25
2016-11-20T02:26:15.172Z,992.20
2016-11-20T02:26:42.488Z,992.24
2016-11-20T02:27:05.352Z,992.18
2016-11-20T02:27:27.096Z,992.19
2016-11-20T02:27:48.837Z,992.14
2016-11-20T02:28:11.578Z,992.18
2016-11-20T02:28:33.332Z,992.13
2016-11-20T02:28:56.088Z,992.20
2016-11-20T02:29:17.832Z,992.23
2016-11-20T02:29:46.876Z,992.24
2016-11-20T02:30:15.376Z,992.21
2016-11-20T02:30:38.230Z,992.21
2016-11-20T02:30:59.960Z,992.22
2016-11-20T02:32:31.008Z,992.24
2016-11-20T02:32:57.510Z,992.22
2016-11-20T02:33:20.274Z,992.31
2016-11-20T02:33:46.818Z,992.32
2016-11-20T02:34:08.560Z,992.33
2016-11-20T02:35:01.376Z,992.45
2016-11-20T02:35:23.118Z,992.42
2016-11-20T02:35:45.848Z,992.42
2016-11-20T02:36:07.611Z,992.41
2016-11-20T02:36:29.382Z,992.43
2016-11-20T02:36:55.738Z,992.46
2016-11-20T02:37:18.522Z,992.42
2016-11-20T02:38:11.625Z,992.43
2016-11-20T02:38:38.125Z,992.49
2016-11-20T02:38:59.860Z,992.48
2016-11-20T02:39:22.613Z,992.45
2016-11-20T02:40:17.261Z,992.43
2016-11-20T02:40:43.779Z,992.44
2016-11-20T02:41:15.036Z,992.45
2016-11-20T02:41:36.782Z,992.41
2016-11-20T02:42:25.070Z,992.44
2016-11-20T02:42:46.825Z,992.40
2016-11-20T02:43:08.574Z,992.37
2016-11-20T02:43:30.386Z,992.32
2016-11-20T02:43:52.144Z,992.38
2016-11-20T02:44:14.891Z,992.33
2016-11-20T02:45:41.645Z,992.32
2016-11-20T02:46:13.409Z,992.22
2016-11-20T02:46:39.899Z,992.22
2016-11-20T02:47:06.403Z,992.23
2016-11-20T02:47:35.428Z,992.24
2016-11-20T02:47:59.758Z,992.25
2016-11-20T02:48:27.262Z,992.18
2016-11-20T02:48:56.455Z,992.14
2016-11-20T02:49:18.242Z,992.11
2016-11-20T02:49:40.002Z,992.15
2016-11-20T02:50:01.744Z,992.11
2016-11-20T02:50:23.486Z,992.10
2016-11-20T02:51:28.154Z,992.06
2016-11-20T02:51:57.398Z,992.06
2016-11-20T02:52:24.003Z,991.93
2016-11-20T02:53:18.963Z,991.93
2016-11-20T02:53:40.693Z,991.88
2016-11-20T02:54:08.019Z,991.95
2016-11-20T02:54:34.531Z,991.89
2016-11-20T02:55:01.034Z,991.90
2016-11-20T02:55:27.709Z,991.90
2016-11-20T02:55:53.083Z,991.88
2016-11-20T02:56:56.622Z,991.85
2016-11-20T02:57:50.640Z,991.87
2016-11-20T02:58:18.158Z,991.92
2016-11-20T02:59:18.564Z,991.80
2016-11-20T02:59:45.066Z,991.75
2016-11-20T03:00:06.931Z,991.78
2016-11-20T03:00:33.430Z,991.80
2016-11-20T03:00:58.110Z,991.77
2016-11-20T03:01:24.611Z,991.80
2016-11-20T03:02:20.506Z,991.79
2016-11-20T03:03:13.334Z,991.79
2016-11-20T03:03:35.081Z,991.82
2016-11-20T03:04:01.578Z,991.82
2016-11-20T03:04:24.319Z,991.78
2016-11-20T03:04:47.046Z,991.80
2016-11-20T03:05:14.560Z,991.83
2016-11-20T03:06:02.863Z,991.80
2016-11-20T03:06:30.206Z,991.91
2016-11-20T03:06:54.507Z,991.90
2016-11-20T03:07:57.841Z,991.79
2016-11-20T03:08:29.107Z,991.79
2016-11-20T03:09:48.652Z,991.80
2016-11-20T03:10:15.176Z,991.76
2016-11-20T03:10:42.719Z,991.78
2016-11-20T03:11:09.239Z,991.84
2016-11-20T03:11:31.015Z,991.91
2016-11-20T03:11:57.511Z,991.85
2016-11-20T03:12:19.238Z,991.95
2016-11-20T03:13:14.239Z,991.87
2016-11-20T03:13:35.980Z,991.88
2016-11-20T03:13:57.718Z,991.88
2016-11-20T03:14:26.801Z,991.84
2016-11-20T03:15:53.030Z,991.76
2016-11-20T03:16:14.786Z,991.79
2016-11-20T03:16:37.527Z,991.80
2016-11-20T03:16:59.291Z,991.83
2016-11-20T03:17:21.033Z,991.81
2016-11-20T03:17:42.766Z,991.92
2016-11-20T03:18:10.086Z,991.94
2016-11-20T03:18:36.626Z,991.89
2016-11-20T03:18:58.447Z,991.77
2016-11-20T03:19:20.387Z,991.75
2016-11-20T03:19:43.120Z,991.70
2016-11-20T03:20:04.859Z,991.76
2016-11-20T03:20:27.595Z,991.72
2016-11-20T03:20:50.370Z,991.73
2016-11-20T03:21:12.125Z,991.77
2016-11-20T03:21:33.874Z,991.75
2016-11-20T03:21:55.599Z,991.71
2016-11-20T03:22:17.419Z,991.76
2016-11-20T03:22:39.156Z,991.71
2016-11-20T03:23:03.561Z,991.63
2016-11-20T03:23:27.699Z,991.75
2016-11-20T03:23:49.435Z,991.68
2016-11-20T03:24:12.168Z,991.71
2016-11-20T03:24:33.913Z,991.65
2016-11-20T03:25:01.392Z,991.70
2016-11-20T03:25:54.386Z,991.66
2016-11-20T03:26:17.141Z,991.65
2016-11-20T03:26:39.968Z,991.65
2016-11-20T03:27:01.727Z,991.68
2016-11-20T03:27:30.800Z,991.75
2016-11-20T03:27:52.563Z,991.68
2016-11-20T03:28:17.950Z,991.66
2016-11-20T03:29:09.201Z,991.70
2016-11-20T03:29:30.942Z,991.63
2016-11-20T03:29:57.296Z,991.66
2016-11-20T03:30:20.060Z,991.69
2016-11-20T03:30:44.548Z,991.64
2016-11-20T03:31:08.368Z,991.66
2016-11-20T03:31:35.032Z,991.67
2016-11-20T03:31:56.800Z,991.66
2016-11-20T03:32:32.831Z,991.67
2016-11-20T03:32:56.564Z,991.71
2016-11-20T03:33:18.352Z,991.65
2016-11-20T03:33:45.848Z,991.68
2016-11-20T03:34:13.345Z,991.67
2016-11-20T03:34:37.717Z,991.63
2016-11-20T03:35:04.242Z,991.69
2016-11-20T03:35:27.983Z,991.68
2016-11-20T03:35:54.499Z,991.73
2016-11-20T03:36:17.228Z,991.71
2016-11-20T03:37:10.241Z,991.63
2016-11-20T03:37:32.993Z,991.68
2016-11-20T03:38:04.262Z,991.63
2016-11-20T03:38:35.532Z,991.59
2016-11-20T03:40:04.392Z,991.63
2016-11-20T03:40:26.138Z,991.53
2016-11-20T03:40:55.302Z,991.60
2016-11-20T03:41:17.075Z,991.57
2016-11-20T03:41:39.877Z,991.58
2016-11-20T03:42:02.678Z,991.55
2016-11-20T03:42:26.433Z,991.45
2016-11-20T03:42:49.165Z,991.45
2016-11-20T03:43:15.656Z,991.44
2016-11-20T03:43:44.161Z,991.44
2016-11-20T03:44:13.230Z,991.36
2016-11-20T03:44:39.566Z,991.45
2016-11-20T03:45:01.313Z,991.44
2016-11-20T03:45:28.829Z,991.47
2016-11-20T03:45:55.334Z,991.45
2016-11-20T03:46:26.601Z,991.47
2016-11-20T03:46:53.126Z,991.42
2016-11-20T03:47:19.665Z,991.36
2016-11-20T03:47:41.412Z,991.35
2016-11-20T03:48:07.924Z,991.33
2016-11-20T03:48:29.674Z,991.36
2016-11-20T03:48:52.418Z,991.38
2016-11-20T03:49:16.790Z,991.38
2016-11-20T03:49:38.528Z,991.35
2016-11-20T03:50:08.677Z,991.37
2016-11-20T03:50:36.222Z,991.42
2016-11-20T03:50:57.961Z,991.40
2016-11-20T03:51:24.463Z,991.39
2016-11-20T03:51:51.994Z,991.37
2016-11-20T03:52:18.494Z,991.34
2016-11-20T03:52:43.074Z,991.31
2016-11-20T03:53:04.804Z,991.27
2016-11-20T03:53:26.535Z,991.25
2016-11-20T03:53:48.408Z,991.24
2016-11-20T03:54:14.913Z,991.33
2016-11-20T03:54:46.181Z,991.27
2016-11-20T03:55:12.695Z,991.30
2016-11-20T03:55:42.062Z,991.25
2016-11-20T03:56:08.555Z,991.30
2016-11-20T03:56:59.577Z,991.28
2016-11-20T03:57:21.316Z,991.30
2016-11-20T03:57:45.053Z,991.25
2016-11-20T03:58:38.295Z,991.21
2016-11-20T03:59:00.087Z,991.20
2016-11-20T03:59:21.814Z,991.21
2016-11-20T03:59:52.061Z,991.16
2016-11-20T04:00:19.412Z,991.14
2016-11-20T04:01:18.167Z,991.13
2016-11-20T04:01:40.896Z,991.07
2016-11-20T04:02:07.401Z,991.09
2016-11-20T04:02:29.135Z,991.08
2016-11-20T04:02:51.981Z,991.11
2016-11-20T04:03:13.731Z,991.09
2016-11-20T04:03:36.455Z,991.07
2016-11-20T04:04:03.969Z,991.07
2016-11-20T04:04:25.750Z,991.04
2016-11-20T04:04:47.491Z,991.06
2016-11-20T04:05:14.001Z,991.11
2016-11-20T04:05:46.259Z,991.03
2016-11-20T04:06:10.767Z,991.02
2016-11-20T04:06:35.082Z,991.03
2016-11-20T04:06:57.803Z,991.02
2016-11-20T04:07:22.273Z,990.97
2016-11-20T04:07:44.015Z,991.01
2016-11-20T04:08:07.750Z,990.91
2016-11-20T04:08:34.258Z,990.99
2016-11-20T04:08:55.995Z,991.00
2016-11-20T04:09:22.508Z,990.99
2016-11-20T04:09:46.790Z,991.01
2016-11-20T04:10:20.743Z,990.95
2016-11-20T04:10:52.011Z,990.84
2016-11-20T04:11:13.749Z,990.84
2016-11-20T04:11:35.492Z,990.83
2016-11-20T04:12:00.999Z,990.87
2016-11-20T04:12:27.503Z,990.85
2016-11-20T04:12:56.205Z,990.79
2016-11-20T04:13:23.710Z,990.78
2016-11-20T04:13:46.551Z,990.82
2016-11-20T04:14:13.777Z,990.83
2016-11-20T04:14:36.527Z,990.87
2016-11-20T04:15:03.035Z,990.84
2016-11-20T04:15:27.266Z,990.85
2016-11-20T04:15:58.621Z,990.87
2016-11-20T04:16:20.463Z,990.83
2016-11-20T04:16:44.216Z,990.82
2016-11-20T04:17:11.721Z,990.80
2016-11-20T04:17:33.473Z,990.81
2016-11-20T04:17:56.228Z,990.81
2016-11-20T04:18:18.003Z,990.84
2016-11-20T04:18:40.787Z,990.87
2016-11-20T04:19:02.520Z,990.88
2016-11-20T04:19:30.012Z,990.83
2016-11-20T04:19:52.744Z,990.85
2016-11-20T04:20:19.245Z,990.78
2016-11-20T04:20:46.254Z,990.81
2016-11-20T04:21:11.567Z,990.81
2016-11-20T04:21:33.322Z,990.77
2016-11-20T04:21:56.142Z,990.79
2016-11-20T04:22:17.901Z,990.81
2016-11-20T04:22:39.657Z,990.82
2016-11-20T04:23:06.164Z,990.83
2016-11-20T04:23:32.712Z,990.84
2016-11-20T04:24:04.982Z,990.77
2016-11-20T04:24:35.357Z,990.79
2016-11-20T04:25:09.478Z,990.75
2016-11-20T04:26:07.309Z,990.72
2016-11-20T04:26:36.562Z,990.72
2016-11-20T04:27:03.096Z,990.81
2016-11-20T04:27:25.853Z,990.71
2016-11-20T04:27:52.381Z,990.69
2016-11-20T04:28:18.909Z,990.67
2016-11-20T04:28:45.429Z,990.59
2016-11-20T04:29:07.141Z,990.62
2016-11-20T04:29:28.877Z,990.64
2016-11-20T04:30:17.293Z,990.67
2016-11-20T04:30:39.033Z,990.61
2016-11-20T04:31:01.775Z,990.63
2016-11-20T04:31:23.546Z,990.57
2016-11-20T04:31:50.064Z,990.61
2016-11-20T04:32:11.898Z,990.56
2016-11-20T04:32:39.990Z,990.57
2016-11-20T04:33:02.725Z,990.55
2016-11-20T04:33:27.127Z,990.48
2016-11-20T04:33:48.861Z,990.61
2016-11-20T04:34:10.595Z,990.61
2016-11-20T04:34:37.096Z,990.57
2016-11-20T04:35:03.609Z,990.57
2016-11-20T04:35:29.936Z,990.55
2016-11-20T04:35:55.255Z,990.54
2016-11-20T04:36:17.079Z,990.59
2016-11-20T04:36:53.224Z,990.52
2016-11-20T04:37:14.852Z,990.53
2016-11-20T04:37:37.590Z,990.51
2016-11-20T04:38:41.085Z,990.49
2016-11-20T04:40:54.898Z,990.47
2016-11-20T04:42:45.813Z,990.48
2016-11-20T04:43:07.548Z,990.49
2016-11-20T04:44:08.860Z,990.35
2016-11-20T04:44:35.362Z,990.40
2016-11-20T04:45:05.762Z,990.47
2016-11-20T04:46:13.152Z,990.45
2016-11-20T04:46:39.657Z,990.44
2016-11-20T04:47:38.273Z,990.44
2016-11-20T04:48:05.815Z,990.22
2016-11-20T04:48:34.340Z,990.31
2016-11-20T04:49:41.971Z,990.31
2016-11-20T04:50:08.606Z,990.27
2016-11-20T04:50:30.339Z,990.24
2016-11-20T04:50:56.848Z,990.26
2016-11-20T04:51:19.615Z,990.24
2016-11-20T04:51:46.130Z,990.23
2016-11-20T04:52:12.636Z,990.22
2016-11-20T04:52:34.369Z,990.22
2016-11-20T04:53:32.935Z,990.23
2016-11-20T04:54:00.514Z,990.27
2016-11-20T04:54:28.020Z,990.26
2016-11-20T04:54:52.473Z,990.20
2016-11-20T04:55:15.208Z,990.21
2016-11-20T04:55:36.937Z,990.11
2016-11-20T04:57:00.116Z,990.08
2016-11-20T04:58:33.520Z,990.08
2016-11-20T04:58:58.210Z,990.03
2016-11-20T04:59:29.477Z,990.08
2016-11-20T04:59:51.233Z,990.00
2016-11-20T05:00:14.143Z,990.04
2016-11-20T05:00:40.646Z,989.97
2016-11-20T05:01:02.472Z,989.99
2016-11-20T05:01:25.204Z,990.00
2016-11-20T05:01:47.955Z,990.01
2016-11-20T05:02:19.228Z,990.04
2016-11-20T05:02:42.980Z,990.02
2016-11-20T05:03:32.228Z,990.03
2016-11-20T05:04:56.709Z,990.09
2016-11-20T05:05:19.460Z,990.09
2016-11-20T05:05:42.192Z,990.06
2016-11-20T05:06:03.951Z,990.10
2016-11-20T05:06:30.526Z,990.09
2016-11-20T05:06:53.380Z,989.98
2016-11-20T05:08:42.393Z,989.79
2016-11-20T05:09:07.099Z,989.76
2016-11-20T05:09:31.470Z,989.82
2016-11-20T05:09:53.222Z,989.85
2016-11-20T05:10:16.013Z,989.94
2016-11-20T05:10:45.245Z,989.97
2016-11-20T05:11:11.575Z,989.97
2016-11-20T05:11:39.068Z,990.04
2016-11-20T05:12:03.523Z,990.06
2016-11-20T05:12:26.317Z,990.10
2016-11-20T05:12:48.057Z,990.04
2016-11-20T05:13:14.571Z,989.93
2016-11-20T05:13:41.068Z,989.85
2016-11-20T05:14:07.575Z,989.92
2016-11-20T05:14:34.871Z,989.97
2016-11-20T05:14:57.604Z,989.99
2016-11-20T05:15:22.270Z,990.01
2016-11-20T05:15:44.041Z,990.00
2016-11-20T05:16:11.538Z,989.96
2016-11-20T05:16:38.095Z,989.97
2016-11-20T05:17:08.256Z,989.87
2016-11-20T05:17:34.765Z,989.81
2016-11-20T05:17:57.502Z,989.73
2016-11-20T05:18:27.975Z,989.79
2016-11-20T05:19:04.017Z,989.80
2016-11-20T05:19:26.771Z,989.77
2016-11-20T05:19:53.277Z,989.74
2016-11-20T05:20:15.040Z,989.79
2016-11-20T05:20:36.771Z,989.77
2016-11-20T05:20:59.548Z,989.69
2016-11-20T05:21:24.222Z,989.71
2016-11-20T05:21:49.564Z,989.67
2016-11-20T05:22:19.961Z,989.66
2016-11-20T05:23:16.145Z,989.63
2016-11-20T05:23:46.498Z,989.61
2016-11-20T05:24:10.778Z,989.61
2016-11-20T05:24:37.270Z,989.64
2016-11-20T05:25:04.772Z,989.65
2016-11-20T05:25:32.274Z,989.71
2016-11-20T05:26:41.594Z,989.63
2016-11-20T05:27:03.349Z,989.61
2016-11-20T05:27:25.169Z,989.61
2016-11-20T05:27:47.931Z,989.70
2016-11-20T05:28:12.505Z,989.70
2016-11-20T05:28:41.422Z,989.74
2016-11-20T05:31:11.748Z,989.63
2016-11-20T05:31:33.781Z,989.67
2016-11-20T05:32:00.284Z,989.60
2016-11-20T05:32:22.046Z,989.67
2016-11-20T05:32:48.554Z,989.51
2016-11-20T05:33:16.061Z,989.50
2016-11-20T05:33:45.404Z,989.58
2016-11-20T05:34:17.482Z,989.56
2016-11-20T05:34:43.070Z,989.64
2016-11-20T05:35:05.289Z,989.68
2016-11-20T05:35:29.753Z,989.69
2016-11-20T05:35:51.498Z,989.59
2016-11-20T05:36:13.253Z,989.44
2016-11-20T05:36:38.697Z,989.49
2016-11-20T05:37:05.205Z,989.53
2016-11-20T05:37:29.926Z,989.58
2016-11-20T05:38:25.708Z,989.52
2016-11-20T05:38:54.723Z,989.53
2016-11-20T05:39:17.444Z,989.59
2016-11-20T05:39:43.184Z,989.66
2016-11-20T05:40:04.926Z,989.71
2016-11-20T05:40:26.750Z,989.49
2016-11-20T05:41:14.992Z,989.64
2016-11-20T05:41:37.734Z,989.62
2016-11-20T05:41:59.516Z,989.49
2016-11-20T05:42:22.249Z,989.47
2016-11-20T05:42:45.015Z,989.46
2016-11-20T05:43:11.532Z,989.39
2016-11-20T05:44:04.599Z,989.38
2016-11-20T05:45:43.184Z,989.31
2016-11-20T05:47:44.853Z,989.24
2016-11-20T05:48:06.584Z,989.29
2016-11-20T05:48:29.429Z,989.39
2016-11-20T05:48:51.170Z,989.40
2016-11-20T05:49:12.933Z,989.42
2016-11-20T05:49:40.457Z,989.29
2016-11-20T05:50:08.013Z,989.39
2016-11-20T05:50:59.838Z,989.37
2016-11-20T05:51:21.605Z,989.43
2016-11-20T05:51:43.342Z,989.44
2016-11-20T05:52:48.656Z,989.37
2016-11-20T05:53:20.924Z,989.29
2016-11-20T05:54:58.911Z,989.31
2016-11-20T05:55:23.505Z,989.38
2016-11-20T05:55:46.276Z,989.38
2016-11-20T05:56:14.841Z,989.40
2016-11-20T05:56:48.667Z,989.29
2016-11-20T05:57:40.490Z,989.23
2016-11-20T05:58:36.072Z,989.32
2016-11-20T05:58:58.821Z,989.37
2016-11-20T05:59:21.580Z,989.34
2016-11-20T05:59:50.627Z,989.30
2016-11-20T06:00:12.374Z,989.38
2016-11-20T06:00:34.264Z,989.37
2016-11-20T06:01:03.135Z,989.33
2016-11-20T06:02:32.026Z,989.38
2016-11-20T06:02:58.531Z,989.38
2016-11-20T06:03:21.266Z,989.41
2016-11-20T06:03:43.004Z,989.37
2016-11-20T06:04:05.193Z,989.32
2016-11-20T06:04:26.999Z,989.18
2016-11-20T06:04:48.906Z,989.32
2016-11-20T06:05:11.639Z,989.32
2016-11-20T06:05:38.264Z,989.26
2016-11-20T06:06:12.087Z,989.33
2016-11-20T06:07:08.847Z,989.35
2016-11-20T06:07:33.710Z,989.28
2016-11-20T06:08:02.243Z,989.34
2016-11-20T06:08:37.362Z,989.31
2016-11-20T06:09:31.455Z,989.30
2016-11-20T06:10:53.056Z,989.26
2016-11-20T06:11:17.577Z,989.23
2016-11-20T06:11:54.434Z,989.16
2016-11-20T06:12:29.452Z,989.15
2016-11-20T06:12:56.951Z,989.24
2016-11-20T06:13:18.698Z,989.20
2016-11-20T06:14:27.756Z,989.26
2016-11-20T06:34:37.134Z,988.90
2016-11-20T06:35:08.404Z,988.91
2016-11-20T06:35:34.905Z,988.93
2016-11-20T06:35:59.364Z,988.98
2016-11-20T06:36:21.095Z,988.98